PWSweather.com
Personal Weather Stations
Station Observations
CARNOUSTIE
Pambride, CarnoustieGB DD7 6DY

PambrideCarnoustieGB DD7 6DY

Lat: 56.50889, Lon: -2.7051

Elevation: 105

Station Type: Oregon Scientific WMR200

Latest ConditionsUpdated 11:10:01 PM GMT Wednesday, Oct 16, 2019
Currently Today's Max Today's Min Today's Average
Temperature 40.3°F4.6°C 59.2°F15.1°C 40.3°F4.6°C 50.4°F10.2°C
Dew Point 32.0°F0.0°C 48.7°F9.3°C 32.0°F0.0°C 41.7°F5.4°C
Winds 2.3 mph NW3.7 kmh NW 12.7 mph -20.4 kmh - - 3.5 mph 5.6 kmh
Wind Gusts 3.5 mph5.6 kmh 15.0 mph24.1 kmh - -
Humidity 72% 77% 56% 72%
Pressure 29.53 in1000.0 mb 29.56 in1001.0 mb 29.38 in994.9 mb -
Hour Temp Dew Point Humidity Winds Wind Gusts Pressure Precip Precip Rate Daily Precip Total
11:10 PM 40.3°F4.6°C 32.0°F0.0°C 72% 2.3 mph NW3.7 kmh NW 3.5 mph5.6 kmh 29.53 in1000.0 mb - 0.00 in0.0 mm 1.15 in29.2 mm
11:00 PM 40.6°F4.8°C 32.2°F0.1°C 72% 3.5 mph NW5.6 kmh NW 3.5 mph5.6 kmh 29.56 in1001.0 mb - 0.00 in0.0 mm 1.15 in29.2 mm
10:55 PM 40.7°F4.8°C 32.4°F0.2°C 72% 3.5 mph WNW5.6 kmh WNW 4.6 mph7.4 kmh 29.56 in1001.0 mb - 0.00 in0.0 mm 0.10 in2.5 mm
10:50 PM 41.0°F5.0°C 32.6°F0.3°C 72% 2.3 mph W3.7 kmh W 3.5 mph5.6 kmh 29.53 in1000.0 mb - 0.00 in0.0 mm 0.10 in2.5 mm
10:45 PM 40.9°F4.9°C 32.6°F0.3°C 72% 3.5 mph WNW5.6 kmh WNW 4.6 mph7.4 kmh 29.53 in1000.0 mb - 0.00 in0.0 mm 0.10 in2.5 mm
10:40 PM 41.0°F5.0°C 32.3°F0.2°C 71% 2.3 mph W3.7 kmh W 3.5 mph5.6 kmh 29.53 in1000.0 mb - 0.00 in0.0 mm 0.10 in2.5 mm
10:35 PM 41.4°F5.2°C 32.7°F0.4°C 71% Calm Calm 2.3 mph3.7 kmh 29.53 in1000.0 mb - 0.00 in0.0 mm 0.10 in2.5 mm
10:30 PM 41.5°F5.3°C 32.8°F0.4°C 71% 3.5 mph W5.6 kmh W 3.5 mph5.6 kmh 29.53 in1000.0 mb - 0.00 in0.0 mm 0.10 in2.5 mm
10:25 PM 41.4°F5.2°C 32.7°F0.4°C 71% 4.6 mph WSW7.4 kmh WSW 4.6 mph7.4 kmh 29.53 in1000.0 mb - 0.00 in0.0 mm 0.10 in2.5 mm
10:20 PM 41.4°F5.2°C 32.7°F0.4°C 71% 3.5 mph WSW5.6 kmh WSW 4.6 mph7.4 kmh 29.53 in1000.0 mb - 0.00 in0.0 mm 0.10 in2.5 mm
10:15 PM 41.5°F5.3°C 32.8°F0.4°C 71% 3.5 mph W5.6 kmh W 4.6 mph7.4 kmh 29.53 in1000.0 mb - 0.00 in0.0 mm 0.10 in2.5 mm
10:10 PM 42.0°F5.6°C 33.2°F0.7°C 71% 2.3 mph W3.7 kmh W 3.5 mph5.6 kmh 29.53 in1000.0 mb - 0.00 in0.0 mm 0.10 in2.5 mm
10:00 PM 42.6°F5.9°C 34.2°F1.2°C 72% 3.5 mph W5.6 kmh W 3.5 mph5.6 kmh 29.53 in1000.0 mb - 0.00 in0.0 mm 0.10 in2.5 mm
09:55 PM 42.8°F6.0°C 34.0°F1.1°C 71% 3.5 mph W5.6 kmh W 4.6 mph7.4 kmh 29.53 in1000.0 mb - 0.00 in0.0 mm 0.10 in2.5 mm
09:50 PM 42.4°F5.8°C 33.7°F0.9°C 71% 3.5 mph W5.6 kmh W 4.6 mph7.4 kmh 29.53 in1000.0 mb - 0.00 in0.0 mm 0.10 in2.5 mm
09:45 PM 42.4°F5.8°C 33.7°F0.9°C 71% 3.5 mph W5.6 kmh W 4.6 mph7.4 kmh 29.53 in1000.0 mb - 0.00 in0.0 mm 0.10 in2.5 mm
09:40 PM 42.4°F5.8°C 33.7°F0.9°C 71% 3.5 mph W5.6 kmh W 4.6 mph7.4 kmh 29.53 in1000.0 mb - 0.00 in0.0 mm 0.10 in2.5 mm
09:35 PM 42.4°F5.8°C 33.3°F0.7°C 70% 3.5 mph W5.6 kmh W 4.6 mph7.4 kmh 29.53 in1000.0 mb - 0.00 in0.0 mm 0.10 in2.5 mm
09:30 PM 42.4°F5.8°C 33.3°F0.7°C 70% 2.3 mph W3.7 kmh W 3.5 mph5.6 kmh 29.53 in1000.0 mb - 0.00 in0.0 mm 0.10 in2.5 mm
09:25 PM 42.8°F6.0°C 33.7°F0.9°C 70% 1.2 mph W1.9 kmh W 2.3 mph3.7 kmh 29.53 in1000.0 mb - 0.00 in0.0 mm 0.10 in2.5 mm
09:20 PM 43.3°F6.3°C 34.2°F1.2°C 70% 2.3 mph W3.7 kmh W 2.3 mph3.7 kmh 29.53 in1000.0 mb - 0.00 in0.0 mm 0.10 in2.5 mm
09:15 PM 43.8°F6.6°C 34.6°F1.4°C 70% 2.3 mph W3.7 kmh W 3.5 mph5.6 kmh 29.53 in1000.0 mb - 0.00 in0.0 mm 0.10 in2.5 mm
09:10 PM 44.6°F7.0°C 35.8°F2.1°C 71% 1.2 mph W1.9 kmh W 2.3 mph3.7 kmh 29.53 in1000.0 mb - 0.00 in0.0 mm 0.10 in2.5 mm
09:00 PM 45.2°F7.3°C 36.4°F2.4°C 71% 4.6 mph WSW7.4 kmh WSW 4.6 mph7.4 kmh 29.50 in999.0 mb - 0.00 in0.0 mm 0.10 in2.5 mm
08:55 PM 45.3°F7.4°C 36.5°F2.5°C 71% 5.8 mph W9.3 kmh W 5.8 mph9.3 kmh 29.50 in999.0 mb - 0.00 in0.0 mm 0.10 in2.5 mm
08:50 PM 45.5°F7.5°C 36.6°F2.6°C 71% 5.8 mph W9.3 kmh W 6.9 mph11.1 kmh 29.50 in999.0 mb - 0.00 in0.0 mm 0.10 in2.5 mm
08:45 PM 45.3°F7.4°C 36.5°F2.5°C 71% 6.9 mph WSW11.1 kmh WSW 6.9 mph11.1 kmh 29.50 in999.0 mb - 0.00 in0.0 mm 0.10 in2.5 mm
08:40 PM 45.2°F7.3°C 36.3°F2.4°C 71% 6.9 mph W11.1 kmh W 8.1 mph13.0 kmh 29.50 in999.0 mb - 0.00 in0.0 mm 0.10 in2.5 mm
08:35 PM 44.8°F7.1°C 35.6°F2.0°C 70% 5.8 mph W9.3 kmh W 5.8 mph9.3 kmh 29.50 in999.0 mb - 0.00 in0.0 mm 0.10 in2.5 mm
08:30 PM 44.5°F6.9°C 35.4°F1.9°C 70% 5.8 mph W9.3 kmh W 8.1 mph13.0 kmh 29.50 in999.0 mb - 0.00 in0.0 mm 0.10 in2.5 mm
08:25 PM 44.2°F6.8°C 35.1°F1.7°C 70% 5.8 mph W9.3 kmh W 5.8 mph9.3 kmh 29.50 in999.0 mb - 0.00 in0.0 mm 0.10 in2.5 mm
08:20 PM 43.9°F6.6°C 34.4°F1.3°C 69% 4.6 mph W7.4 kmh W 5.8 mph9.3 kmh 29.47 in998.0 mb - 0.00 in0.0 mm 0.10 in2.5 mm
08:15 PM 43.5°F6.4°C 34.0°F1.1°C 69% 4.6 mph WSW7.4 kmh WSW 4.6 mph7.4 kmh 29.47 in998.0 mb - 0.00 in0.0 mm 0.10 in2.5 mm
08:10 PM 43.7°F6.5°C 34.2°F1.2°C 69% 3.5 mph W5.6 kmh W 4.6 mph7.4 kmh 29.47 in998.0 mb - 0.00 in0.0 mm 0.10 in2.5 mm
08:00 PM 44.1°F6.7°C 34.6°F1.4°C 69% 3.5 mph W5.6 kmh W 3.5 mph5.6 kmh 29.50 in999.0 mb - 0.00 in0.0 mm 0.10 in2.5 mm
07:55 PM 44.4°F6.9°C 34.9°F1.6°C 69% 2.3 mph W3.7 kmh W 3.5 mph5.6 kmh 29.50 in999.0 mb - 0.00 in0.0 mm 0.10 in2.5 mm
07:50 PM 44.8°F7.1°C 34.8°F1.6°C 68% 3.5 mph W5.6 kmh W 3.5 mph5.6 kmh 29.50 in999.0 mb - 0.00 in0.0 mm 0.10 in2.5 mm
07:45 PM 44.8°F7.1°C 34.9°F1.6°C 68% 3.5 mph W5.6 kmh W 4.6 mph7.4 kmh 29.50 in999.0 mb - 0.00 in0.0 mm 0.10 in2.5 mm
07:40 PM 45.1°F7.3°C 35.2°F1.8°C 68% 4.6 mph W7.4 kmh W 4.6 mph7.4 kmh 29.50 in999.0 mb - 0.00 in0.0 mm 0.10 in2.5 mm
07:35 PM 45.7°F7.6°C 35.7°F2.1°C 68% 3.5 mph W5.6 kmh W 3.5 mph5.6 kmh 29.50 in999.0 mb - 0.00 in0.0 mm 0.10 in2.5 mm
07:30 PM 46.0°F7.8°C 36.1°F2.3°C 68% 3.5 mph W5.6 kmh W 4.6 mph7.4 kmh 29.50 in999.0 mb - 0.00 in0.0 mm 0.10 in2.5 mm
07:25 PM 46.2°F7.9°C 36.3°F2.4°C 68% 5.8 mph W9.3 kmh W 6.9 mph11.1 kmh 29.50 in999.0 mb - 0.00 in0.0 mm 0.10 in2.5 mm
07:20 PM 46.6°F8.1°C 36.2°F2.3°C 67% 4.6 mph W7.4 kmh W 5.8 mph9.3 kmh 29.50 in999.0 mb - 0.00 in0.0 mm 0.10 in2.5 mm
07:15 PM 47.3°F8.5°C 37.3°F2.9°C 68% 4.6 mph W7.4 kmh W 5.8 mph9.3 kmh 29.50 in999.0 mb - 0.00 in0.0 mm 0.10 in2.5 mm
07:10 PM 47.7°F8.7°C 37.6°F3.1°C 68% 5.8 mph W9.3 kmh W 5.8 mph9.3 kmh 29.50 in999.0 mb - 0.00 in0.0 mm 0.10 in2.5 mm
07:00 PM 48.0°F8.9°C 38.0°F3.3°C 68% 5.8 mph W9.3 kmh W 6.9 mph11.1 kmh 29.47 in998.0 mb - 0.00 in0.0 mm 0.10 in2.5 mm
06:55 PM 48.2°F9.0°C 38.1°F3.4°C 68% 6.9 mph WSW11.1 kmh WSW 8.1 mph13.0 kmh 29.47 in998.0 mb - 0.00 in0.0 mm 0.10 in2.5 mm
06:50 PM 48.2°F9.0°C 38.1°F3.4°C 68% 6.9 mph W11.1 kmh W 9.2 mph14.8 kmh 29.47 in998.0 mb - 0.00 in0.0 mm 0.10 in2.5 mm
06:45 PM 48.2°F9.0°C 38.1°F3.4°C 68% 6.9 mph WSW11.1 kmh WSW 8.1 mph13.0 kmh 29.47 in998.0 mb - 0.00 in0.0 mm 0.10 in2.5 mm
06:40 PM 48.2°F9.0°C 38.1°F3.4°C 68% 5.8 mph W9.3 kmh W 8.1 mph13.0 kmh 29.47 in998.0 mb - 0.00 in0.0 mm 0.10 in2.5 mm
06:35 PM 47.8°F8.8°C 37.8°F3.2°C 68% 6.9 mph W11.1 kmh W 8.1 mph13.0 kmh 29.47 in998.0 mb - 0.00 in0.0 mm 0.10 in2.5 mm
06:30 PM 47.8°F8.8°C 37.4°F3.0°C 67% 5.8 mph W9.3 kmh W 8.1 mph13.0 kmh 29.47 in998.0 mb - 0.00 in0.0 mm 0.10 in2.5 mm
06:25 PM 47.8°F8.8°C 37.4°F3.0°C 67% 4.6 mph WSW7.4 kmh WSW 8.1 mph13.0 kmh 29.47 in998.0 mb - 0.00 in0.0 mm 0.10 in2.5 mm
06:20 PM 48.0°F8.9°C 37.6°F3.1°C 67% 4.6 mph WSW7.4 kmh WSW 5.8 mph9.3 kmh 29.47 in998.0 mb - 0.00 in0.0 mm 0.10 in2.5 mm
06:15 PM 48.2°F9.0°C 37.4°F3.0°C 66% 4.6 mph WSW7.4 kmh WSW 4.6 mph7.4 kmh 29.47 in998.0 mb - 0.00 in0.0 mm 0.10 in2.5 mm
06:10 PM 48.2°F9.0°C 37.4°F3.0°C 66% 4.6 mph WSW7.4 kmh WSW 4.6 mph7.4 kmh 29.47 in998.0 mb - 0.00 in0.0 mm 0.10 in2.5 mm
06:00 PM 48.6°F9.2°C 37.7°F3.2°C 66% 3.5 mph W5.6 kmh W 4.6 mph7.4 kmh 29.47 in998.0 mb - 0.00 in0.0 mm 0.10 in2.5 mm
05:55 PM 48.7°F9.3°C 37.9°F3.3°C 66% 3.5 mph W5.6 kmh W 5.8 mph9.3 kmh 29.47 in998.0 mb - 0.00 in0.0 mm 0.10 in2.5 mm
05:50 PM 48.7°F9.3°C 37.5°F3.1°C 65% 4.6 mph W7.4 kmh W 5.8 mph9.3 kmh 29.47 in998.0 mb - 0.00 in0.0 mm 0.10 in2.5 mm
05:40 PM 48.9°F9.4°C 37.3°F2.9°C 64% 5.8 mph WSW9.3 kmh WSW 6.9 mph11.1 kmh 29.47 in998.0 mb - 0.00 in0.0 mm 0.10 in2.5 mm
05:35 PM 48.9°F9.4°C 37.3°F2.9°C 64% 4.6 mph WSW7.4 kmh WSW 5.8 mph9.3 kmh 29.44 in997.0 mb - 0.00 in0.0 mm 0.10 in2.5 mm
05:30 PM 49.3°F9.6°C 37.2°F2.9°C 63% 3.5 mph WSW5.6 kmh WSW 4.6 mph7.4 kmh 29.44 in997.0 mb - 0.00 in0.0 mm 0.10 in2.5 mm
05:25 PM 49.6°F9.8°C 37.6°F3.1°C 63% 3.5 mph WSW5.6 kmh WSW 5.8 mph9.3 kmh 29.44 in997.0 mb - 0.00 in0.0 mm 0.10 in2.5 mm
05:20 PM 50.0°F10.0°C 37.5°F3.1°C 62% 4.6 mph WSW7.4 kmh WSW 4.6 mph7.4 kmh 29.44 in997.0 mb - 0.00 in0.0 mm 0.10 in2.5 mm
05:15 PM 50.5°F10.3°C 38.0°F3.3°C 62% 4.6 mph W7.4 kmh W 4.6 mph7.4 kmh 29.44 in997.0 mb - 0.00 in0.0 mm 0.10 in2.5 mm
05:10 PM 51.0°F10.6°C 38.0°F3.3°C 61% 4.6 mph W7.4 kmh W 5.8 mph9.3 kmh 29.44 in997.0 mb - 0.00 in0.0 mm 0.10 in2.5 mm
05:00 PM 52.2°F11.2°C 39.1°F3.9°C 61% 4.6 mph W7.4 kmh W 5.8 mph9.3 kmh 29.44 in997.0 mb - 0.00 in0.0 mm 0.10 in2.5 mm
04:55 PM 53.0°F11.7°C 39.9°F4.4°C 61% 4.6 mph WSW7.4 kmh WSW 4.6 mph7.4 kmh 29.44 in997.0 mb - 0.00 in0.0 mm 0.10 in2.5 mm
04:50 PM 53.4°F11.9°C 40.3°F4.6°C 61% 4.6 mph WSW7.4 kmh WSW 4.6 mph7.4 kmh 29.44 in997.0 mb - 0.00 in0.0 mm 0.10 in2.5 mm
04:45 PM 53.2°F11.8°C 39.7°F4.3°C 60% 4.6 mph WSW7.4 kmh WSW 5.8 mph9.3 kmh 29.44 in997.0 mb - 0.00 in0.0 mm 0.10 in2.5 mm
04:40 PM 53.1°F11.7°C 39.1°F3.9°C 59% 5.8 mph W9.3 kmh W 8.1 mph13.0 kmh 29.44 in997.0 mb - 0.00 in0.0 mm 0.10 in2.5 mm
04:35 PM 53.6°F12.0°C 39.2°F4.0°C 58% 6.9 mph W11.1 kmh W 8.1 mph13.0 kmh 29.44 in997.0 mb - 0.00 in0.0 mm 0.10 in2.5 mm
04:30 PM 54.3°F12.4°C 39.8°F4.3°C 58% 5.8 mph W9.3 kmh W 6.9 mph11.1 kmh 29.44 in997.0 mb - 0.00 in0.0 mm 0.10 in2.5 mm
04:25 PM 55.1°F12.8°C 40.2°F4.6°C 57% 6.9 mph W11.1 kmh W 8.1 mph13.0 kmh 29.44 in997.0 mb - 0.00 in0.0 mm 0.10 in2.5 mm
04:20 PM 56.2°F13.4°C 40.7°F4.8°C 56% 5.8 mph W9.3 kmh W 6.9 mph11.1 kmh 29.44 in997.0 mb - 0.00 in0.0 mm 0.10 in2.5 mm
04:15 PM 57.4°F14.1°C 41.8°F5.4°C 56% 6.9 mph W11.1 kmh W 8.1 mph13.0 kmh 29.44 in997.0 mb - 0.00 in0.0 mm 0.10 in2.5 mm
04:10 PM 58.0°F14.4°C 42.4°F5.8°C 56% 8.1 mph W13.0 kmh W 10.4 mph16.7 kmh 29.44 in997.0 mb - 0.00 in0.0 mm 0.10 in2.5 mm
04:00 PM 58.5°F14.7°C 42.8°F6.0°C 56% 6.9 mph W11.1 kmh W 8.1 mph13.0 kmh 29.44 in997.0 mb - 0.00 in0.0 mm 0.10 in2.5 mm
03:55 PM 59.1°F15.1°C 44.4°F6.9°C 58% 6.9 mph W11.1 kmh W 9.2 mph14.8 kmh 29.44 in997.0 mb - 0.00 in0.0 mm 0.10 in2.5 mm
03:50 PM 58.9°F14.9°C 44.1°F6.7°C 58% 8.1 mph W13.0 kmh W 9.2 mph14.8 kmh 29.44 in997.0 mb - 0.00 in0.0 mm 0.10 in2.5 mm
03:45 PM 58.8°F14.9°C 44.1°F6.7°C 58% 8.1 mph W13.0 kmh W 10.4 mph16.7 kmh 29.44 in997.0 mb - 0.00 in0.0 mm 0.10 in2.5 mm
03:40 PM 58.8°F14.9°C 44.1°F6.7°C 58% 8.1 mph W13.0 kmh W 9.2 mph14.8 kmh 29.44 in997.0 mb - 0.00 in0.0 mm 0.10 in2.5 mm
03:35 PM 59.2°F15.1°C 45.3°F7.4°C 60% 9.2 mph W14.8 kmh W 12.7 mph20.4 kmh 29.44 in997.0 mb - 0.00 in0.0 mm 0.10 in2.5 mm
03:30 PM 59.2°F15.1°C 46.2°F7.9°C 62% 6.9 mph WSW11.1 kmh WSW 10.4 mph16.7 kmh 29.44 in997.0 mb - 0.00 in0.0 mm 0.10 in2.5 mm
03:25 PM 58.5°F14.7°C 46.0°F7.8°C 63% 5.8 mph W9.3 kmh W 6.9 mph11.1 kmh 29.44 in997.0 mb - 0.00 in0.0 mm 0.10 in2.5 mm
03:20 PM 58.2°F14.6°C 46.5°F8.1°C 65% 8.1 mph W13.0 kmh W 13.8 mph22.2 kmh 29.44 in997.0 mb - 0.00 in0.0 mm 0.10 in2.5 mm
03:15 PM 58.1°F14.5°C 47.6°F8.7°C 68% 8.1 mph W13.0 kmh W 13.8 mph22.2 kmh 29.44 in997.0 mb - 0.00 in0.0 mm 0.10 in2.5 mm
03:10 PM 57.5°F14.2°C 47.8°F8.8°C 70% 8.1 mph W13.0 kmh W 8.1 mph13.0 kmh 29.44 in997.0 mb - 0.00 in0.0 mm 0.10 in2.5 mm
03:00 PM 56.5°F13.6°C 48.7°F9.3°C 75% 8.1 mph W13.0 kmh W 10.4 mph16.7 kmh 29.44 in997.0 mb - 0.00 in0.0 mm 0.10 in2.5 mm
02:55 PM 55.9°F13.3°C 48.5°F9.2°C 76% 12.7 mph W20.4 kmh W 15.0 mph24.1 kmh 29.44 in997.0 mb - 0.00 in0.0 mm 0.10 in2.5 mm
02:50 PM 55.2°F12.9°C 48.1°F8.9°C 77% 8.1 mph W13.0 kmh W 9.2 mph14.8 kmh 29.44 in997.0 mb - 0.00 in0.0 mm 0.10 in2.5 mm
02:45 PM 55.3°F12.9°C 48.2°F9.0°C 77% 5.8 mph WSW9.3 kmh WSW 10.4 mph16.7 kmh 29.44 in997.0 mb - 0.00 in0.0 mm 0.10 in2.5 mm
02:40 PM 55.1°F12.8°C 48.0°F8.9°C 77% 4.6 mph W7.4 kmh W 8.1 mph13.0 kmh 29.44 in997.0 mb - 0.00 in0.0 mm 0.10 in2.5 mm
02:35 PM 54.9°F12.7°C 47.8°F8.8°C 77% 8.1 mph W13.0 kmh W 9.2 mph14.8 kmh 29.41 in995.9 mb - 0.00 in0.0 mm 0.10 in2.5 mm
02:30 PM 54.9°F12.7°C 47.8°F8.8°C 77% 8.1 mph W13.0 kmh W 9.2 mph14.8 kmh 29.41 in995.9 mb - 0.00 in0.0 mm 0.10 in2.5 mm
02:25 PM 54.6°F12.6°C 47.5°F8.6°C 77% 5.8 mph W9.3 kmh W 6.9 mph11.1 kmh 29.41 in995.9 mb - 0.00 in0.0 mm 0.10 in2.5 mm
02:20 PM 54.5°F12.5°C 47.4°F8.6°C 77% 4.6 mph W7.4 kmh W 6.9 mph11.1 kmh 29.41 in995.9 mb - 0.00 in0.0 mm 0.10 in2.5 mm
02:15 PM 54.3°F12.4°C 47.3°F8.5°C 77% 3.5 mph SW5.6 kmh SW 4.6 mph7.4 kmh 29.41 in995.9 mb - 0.00 in0.0 mm 0.10 in2.5 mm
02:10 PM 54.3°F12.4°C 47.3°F8.5°C 77% 3.5 mph SW5.6 kmh SW 4.6 mph7.4 kmh 29.41 in995.9 mb - 0.00 in0.0 mm 0.10 in2.5 mm
02:00 PM 54.5°F12.5°C 47.4°F8.6°C 77% 3.5 mph SW5.6 kmh SW 4.6 mph7.4 kmh 29.41 in995.9 mb - 0.00 in0.0 mm 0.10 in2.5 mm
01:55 PM 54.3°F12.4°C 47.3°F8.5°C 77% 3.5 mph W5.6 kmh W 4.6 mph7.4 kmh 29.41 in995.9 mb - 0.00 in0.0 mm 0.10 in2.5 mm
01:50 PM 54.1°F12.3°C 47.1°F8.4°C 77% 3.5 mph WSW5.6 kmh WSW 4.6 mph7.4 kmh 29.41 in995.9 mb - 0.00 in0.0 mm 0.10 in2.5 mm
01:45 PM 54.1°F12.3°C 47.1°F8.4°C 77% 3.5 mph WSW5.6 kmh WSW 4.6 mph7.4 kmh 29.41 in995.9 mb - 0.00 in0.0 mm 0.10 in2.5 mm
01:40 PM 53.6°F12.0°C 46.2°F7.9°C 76% 2.3 mph WSW3.7 kmh WSW 3.5 mph5.6 kmh 29.41 in995.9 mb - 0.00 in0.0 mm 0.10 in2.5 mm
01:35 PM 53.4°F11.9°C 46.4°F8.0°C 77% 1.2 mph WSW1.9 kmh WSW 3.5 mph5.6 kmh 29.41 in995.9 mb - 0.00 in0.0 mm 0.10 in2.5 mm
01:30 PM 53.2°F11.8°C 46.2°F7.9°C 77% 2.3 mph WSW3.7 kmh WSW 3.5 mph5.6 kmh 29.41 in995.9 mb - 0.00 in0.0 mm 0.10 in2.5 mm
01:25 PM 53.1°F11.7°C 46.0°F7.8°C 77% 2.3 mph SW3.7 kmh SW 3.5 mph5.6 kmh 29.41 in995.9 mb - 0.00 in0.0 mm 0.10 in2.5 mm
01:20 PM 53.1°F11.7°C 45.7°F7.6°C 76% 2.3 mph SW3.7 kmh SW 3.5 mph5.6 kmh 29.41 in995.9 mb - 0.00 in0.0 mm 0.10 in2.5 mm
01:15 PM 52.9°F11.6°C 45.5°F7.5°C 76% Calm Calm 2.3 mph3.7 kmh 29.41 in995.9 mb - 0.00 in0.0 mm 0.10 in2.5 mm
01:10 PM 52.9°F11.6°C 45.5°F7.5°C 76% 1.2 mph SW1.9 kmh SW -- 29.41 in995.9 mb - 0.01 in0.3 mm 0.10 in2.5 mm
01:00 PM 52.9°F11.6°C 45.5°F7.5°C 76% 2.3 mph SW3.7 kmh SW 5.8 mph9.3 kmh 29.38 in994.9 mb - 0.03 in0.8 mm 0.10 in2.5 mm
12:55 PM 52.9°F11.6°C 45.5°F7.5°C 76% 2.3 mph S3.7 kmh S 4.6 mph7.4 kmh 29.38 in994.9 mb - 0.03 in0.8 mm 0.10 in2.5 mm
12:50 PM 52.7°F11.5°C 45.4°F7.4°C 76% 2.3 mph SSW3.7 kmh SSW 3.5 mph5.6 kmh 29.41 in995.9 mb - 0.04 in1.0 mm 0.10 in2.5 mm
12:45 PM 52.6°F11.4°C 45.2°F7.3°C 76% 3.5 mph S5.6 kmh S 4.6 mph7.4 kmh 29.41 in995.9 mb - 0.04 in1.0 mm 0.10 in2.5 mm
12:40 PM 52.7°F11.5°C 45.3°F7.4°C 76% 2.3 mph SW3.7 kmh SW 2.3 mph3.7 kmh 29.41 in995.9 mb - 0.04 in1.0 mm 0.10 in2.5 mm
12:35 PM 52.7°F11.5°C 45.3°F7.4°C 76% 3.5 mph S5.6 kmh S 5.8 mph9.3 kmh 29.38 in994.9 mb - 0.06 in1.5 mm 0.10 in2.5 mm
12:30 PM 52.7°F11.5°C 45.3°F7.4°C 76% 2.3 mph S3.7 kmh S 2.3 mph3.7 kmh 29.38 in994.9 mb - 0.06 in1.5 mm 0.10 in2.5 mm
12:25 PM 52.9°F11.6°C 45.5°F7.5°C 76% 3.5 mph S5.6 kmh S 6.9 mph11.1 kmh 29.38 in994.9 mb - 0.06 in1.5 mm 0.10 in2.5 mm
12:20 PM 53.1°F11.7°C 45.7°F7.6°C 76% 4.6 mph S7.4 kmh S 5.8 mph9.3 kmh 29.38 in994.9 mb - 0.06 in1.5 mm 0.10 in2.5 mm
12:15 PM 53.1°F11.7°C 45.7°F7.6°C 76% 3.5 mph S5.6 kmh S 5.8 mph9.3 kmh 29.38 in994.9 mb - 0.06 in1.5 mm 0.10 in2.5 mm
12:10 PM 53.1°F11.7°C 45.7°F7.6°C 76% 2.3 mph S3.7 kmh S 4.6 mph7.4 kmh 29.38 in994.9 mb - 0.06 in1.5 mm 0.10 in2.5 mm
12:00 PM 52.9°F11.6°C 45.2°F7.3°C 75% 2.3 mph S3.7 kmh S 4.6 mph7.4 kmh 29.38 in994.9 mb - 0.05 in1.3 mm 0.09 in2.3 mm
11:55 AM 52.7°F11.5°C 45.0°F7.2°C 75% 1.2 mph S1.9 kmh S 4.6 mph7.4 kmh 29.38 in994.9 mb - 0.03 in0.8 mm 0.07 in1.8 mm
11:50 AM 52.7°F11.5°C 45.0°F7.2°C 75% 3.5 mph SSE5.6 kmh SSE 4.6 mph7.4 kmh 29.38 in994.9 mb - 0.02 in0.5 mm 0.06 in1.5 mm
11:45 AM 52.8°F11.6°C 45.1°F7.3°C 75% 3.5 mph SSE5.6 kmh SSE 4.6 mph7.4 kmh 29.38 in994.9 mb - 0.02 in0.5 mm 0.06 in1.5 mm
11:40 AM 52.7°F11.5°C 45.0°F7.2°C 75% 1.2 mph S1.9 kmh S 2.3 mph3.7 kmh 29.38 in994.9 mb - 0.02 in0.5 mm 0.06 in1.5 mm
11:35 AM 52.9°F11.6°C 45.2°F7.3°C 75% 3.5 mph S5.6 kmh S 9.2 mph14.8 kmh 29.38 in994.9 mb - 0.01 in0.3 mm 0.04 in1.0 mm
11:30 AM 52.9°F11.6°C 45.2°F7.3°C 75% 3.5 mph SSE5.6 kmh SSE 8.1 mph13.0 kmh 29.38 in994.9 mb - 0.01 in0.3 mm 0.04 in1.0 mm
11:25 AM 53.1°F11.7°C 45.3°F7.4°C 75% 1.2 mph S1.9 kmh S 4.6 mph7.4 kmh 29.38 in994.9 mb - 0.03 in0.8 mm 0.04 in1.0 mm
11:20 AM 53.2°F11.8°C 45.5°F7.5°C 75% 4.6 mph SSW7.4 kmh SSW 5.8 mph9.3 kmh 29.38 in994.9 mb - 0.04 in1.0 mm 0.04 in1.0 mm
11:15 AM 53.2°F11.8°C 45.5°F7.5°C 75% 3.5 mph S5.6 kmh S 5.8 mph9.3 kmh 29.38 in994.9 mb - 0.04 in1.0 mm 0.04 in1.0 mm
11:10 AM 53.4°F11.9°C 45.7°F7.6°C 75% 1.2 mph SE1.9 kmh SE 4.6 mph7.4 kmh 29.38 in994.9 mb - 0.04 in1.0 mm 0.04 in1.0 mm
11:00 AM 53.1°F11.7°C 45.3°F7.4°C 75% 2.3 mph SSW3.7 kmh SSW 2.3 mph3.7 kmh 29.38 in994.9 mb - 0.04 in1.0 mm 0.04 in1.0 mm
10:55 AM 53.1°F11.7°C 45.3°F7.4°C 75% 3.5 mph SSE5.6 kmh SSE 4.6 mph7.4 kmh 29.38 in994.9 mb - 0.04 in1.0 mm 0.04 in1.0 mm
10:50 AM 53.1°F11.7°C 45.3°F7.4°C 75% 2.3 mph S3.7 kmh S 3.5 mph5.6 kmh 29.41 in995.9 mb - 0.04 in1.0 mm 0.04 in1.0 mm
10:45 AM 53.1°F11.7°C 45.3°F7.4°C 75% 3.5 mph S5.6 kmh S 4.6 mph7.4 kmh 29.41 in995.9 mb - 0.04 in1.0 mm 0.04 in1.0 mm
10:40 AM 53.0°F11.7°C 45.3°F7.4°C 75% 3.5 mph S5.6 kmh S 5.8 mph9.3 kmh 29.41 in995.9 mb - 0.04 in1.0 mm 0.04 in1.0 mm
10:35 AM 52.9°F11.6°C 45.2°F7.3°C 75% 3.5 mph S5.6 kmh S 4.6 mph7.4 kmh 29.38 in994.9 mb - 0.03 in0.8 mm 0.03 in0.8 mm
10:30 AM 52.5°F11.4°C 44.5°F6.9°C 74% 2.3 mph SSE3.7 kmh SSE 5.8 mph9.3 kmh 29.38 in994.9 mb - 0.03 in0.8 mm 0.03 in0.8 mm
10:25 AM 52.5°F11.4°C 44.5°F6.9°C 74% 3.5 mph S5.6 kmh S 4.6 mph7.4 kmh 29.38 in994.9 mb - 0.03 in0.8 mm 0.03 in0.8 mm
10:20 AM 52.5°F11.4°C 44.5°F6.9°C 74% 3.5 mph S5.6 kmh S 4.6 mph7.4 kmh 29.38 in994.9 mb - 0.00 in0.0 mm 0.00 in0.0 mm
10:15 AM 52.7°F11.5°C 44.6°F7.0°C 74% 4.6 mph SSE7.4 kmh SSE 6.9 mph11.1 kmh 29.38 in994.9 mb - 0.00 in0.0 mm 0.00 in0.0 mm
10:10 AM 52.9°F11.6°C 44.8°F7.1°C 74% 3.5 mph S5.6 kmh S 8.1 mph13.0 kmh 29.38 in994.9 mb - 0.00 in0.0 mm 0.00 in0.0 mm
10:00 AM 53.2°F11.8°C 45.5°F7.5°C 75% 3.5 mph SW5.6 kmh SW 4.6 mph7.4 kmh 29.38 in994.9 mb - 0.00 in0.0 mm 0.00 in0.0 mm
09:55 AM 53.4°F11.9°C 45.7°F7.6°C 75% 4.6 mph SE7.4 kmh SE 5.8 mph9.3 kmh 29.38 in994.9 mb - 0.00 in0.0 mm 0.00 in0.0 mm
09:50 AM 53.3°F11.8°C 45.6°F7.6°C 75% 2.3 mph SE3.7 kmh SE 4.6 mph7.4 kmh 29.38 in994.9 mb - 0.00 in0.0 mm 0.00 in0.0 mm
09:45 AM 53.2°F11.8°C 45.5°F7.5°C 75% 4.6 mph SE7.4 kmh SE 6.9 mph11.1 kmh 29.38 in994.9 mb - 0.00 in0.0 mm 0.00 in0.0 mm
09:40 AM 53.1°F11.7°C 45.3°F7.4°C 75% 4.6 mph SSE7.4 kmh SSE 8.1 mph13.0 kmh 29.38 in994.9 mb - 0.00 in0.0 mm 0.00 in0.0 mm
09:35 AM 52.9°F11.6°C 45.2°F7.3°C 75% 1.2 mph S1.9 kmh S 2.3 mph3.7 kmh 29.38 in994.9 mb - 0.00 in0.0 mm 0.00 in0.0 mm
09:30 AM 52.9°F11.6°C 45.2°F7.3°C 75% 4.6 mph S7.4 kmh S 5.8 mph9.3 kmh 29.38 in994.9 mb - 0.00 in0.0 mm 0.00 in0.0 mm
09:25 AM 53.1°F11.7°C 45.3°F7.4°C 75% 5.8 mph SSE9.3 kmh SSE 9.2 mph14.8 kmh 29.38 in994.9 mb - 0.00 in0.0 mm 0.00 in0.0 mm
09:20 AM 53.1°F11.7°C 45.3°F7.4°C 75% 2.3 mph S3.7 kmh S 3.5 mph5.6 kmh 29.38 in994.9 mb - 0.00 in0.0 mm 0.00 in0.0 mm
09:15 AM 52.9°F11.6°C 45.2°F7.3°C 75% 4.6 mph SSE7.4 kmh SSE 5.8 mph9.3 kmh 29.38 in994.9 mb - 0.00 in0.0 mm 0.00 in0.0 mm
09:10 AM 52.9°F11.6°C 45.2°F7.3°C 75% 3.5 mph S5.6 kmh S 4.6 mph7.4 kmh 29.38 in994.9 mb - 0.00 in0.0 mm 0.00 in0.0 mm
09:00 AM 53.0°F11.7°C 45.3°F7.4°C 75% 3.5 mph SE5.6 kmh SE 5.8 mph9.3 kmh 29.38 in994.9 mb - 0.00 in0.0 mm 0.00 in0.0 mm
08:55 AM 53.1°F11.7°C 45.7°F7.6°C 76% 6.9 mph SE11.1 kmh SE 10.4 mph16.7 kmh 29.38 in994.9 mb - 0.00 in0.0 mm 0.00 in0.0 mm
08:50 AM 53.1°F11.7°C 45.7°F7.6°C 76% 4.6 mph SE7.4 kmh SE 6.9 mph11.1 kmh 29.38 in994.9 mb - 0.00 in0.0 mm 0.00 in0.0 mm
08:45 AM 53.0°F11.7°C 45.6°F7.6°C 76% 5.8 mph SSE9.3 kmh SSE 9.2 mph14.8 kmh 29.38 in994.9 mb - 0.00 in0.0 mm 0.00 in0.0 mm
08:40 AM 53.1°F11.7°C 45.7°F7.6°C 76% 3.5 mph SE5.6 kmh SE 6.9 mph11.1 kmh 29.38 in994.9 mb - 0.00 in0.0 mm 0.00 in0.0 mm
08:35 AM 53.1°F11.7°C 45.7°F7.6°C 76% 4.6 mph SSE7.4 kmh SSE 6.9 mph11.1 kmh 29.41 in995.9 mb - 0.00 in0.0 mm 0.00 in0.0 mm
08:30 AM 52.9°F11.6°C 45.5°F7.5°C 76% 6.9 mph S11.1 kmh S 10.4 mph16.7 kmh 29.41 in995.9 mb - 0.00 in0.0 mm 0.00 in0.0 mm
08:25 AM 53.1°F11.7°C 46.0°F7.8°C 77% 5.8 mph S9.3 kmh S 9.2 mph14.8 kmh 29.41 in995.9 mb - 0.00 in0.0 mm 0.00 in0.0 mm
08:20 AM 52.8°F11.6°C 45.7°F7.6°C 77% 4.6 mph SSE7.4 kmh SSE 6.9 mph11.1 kmh 29.41 in995.9 mb - 0.00 in0.0 mm 0.00 in0.0 mm
08:15 AM 52.3°F11.3°C 45.3°F7.4°C 77% 4.6 mph SE7.4 kmh SE 5.8 mph9.3 kmh 29.41 in995.9 mb - 0.00 in0.0 mm 0.00 in0.0 mm
08:10 AM 52.0°F11.1°C 45.0°F7.2°C 77% 4.6 mph SE7.4 kmh SE 5.8 mph9.3 kmh 29.41 in995.9 mb - 0.00 in0.0 mm 0.00 in0.0 mm
08:00 AM 51.2°F10.7°C 44.2°F6.8°C 77% 3.5 mph S5.6 kmh S 4.6 mph7.4 kmh 29.41 in995.9 mb - 0.00 in0.0 mm 0.00 in0.0 mm
07:50 AM 50.7°F10.4°C 43.4°F6.3°C 76% 2.3 mph S3.7 kmh S 6.9 mph11.1 kmh 29.41 in995.9 mb - 0.00 in0.0 mm 0.00 in0.0 mm
07:45 AM 50.5°F10.3°C 43.3°F6.3°C 76% 3.5 mph SSE5.6 kmh SSE 4.6 mph7.4 kmh 29.41 in995.9 mb - 0.00 in0.0 mm 0.00 in0.0 mm
07:40 AM 50.4°F10.2°C 43.1°F6.2°C 76% 3.5 mph S5.6 kmh S 6.9 mph11.1 kmh 29.41 in995.9 mb - 0.00 in0.0 mm 0.00 in0.0 mm
07:35 AM 50.2°F10.1°C 42.9°F6.1°C 76% 4.6 mph SE7.4 kmh SE 8.1 mph13.0 kmh 29.44 in997.0 mb - 0.00 in0.0 mm 0.00 in0.0 mm
07:30 AM 50.2°F10.1°C 42.9°F6.1°C 76% 3.5 mph SSE5.6 kmh SSE 9.2 mph14.8 kmh 29.44 in997.0 mb - 0.00 in0.0 mm 0.00 in0.0 mm
07:25 AM 50.2°F10.1°C 42.9°F6.1°C 76% 3.5 mph SE5.6 kmh SE 5.8 mph9.3 kmh 29.44 in997.0 mb - 0.00 in0.0 mm 0.00 in0.0 mm
07:20 AM 50.1°F10.1°C 42.8°F6.0°C 76% 2.3 mph SE3.7 kmh SE 3.5 mph5.6 kmh 29.41 in995.9 mb - 0.00 in0.0 mm 0.00 in0.0 mm
07:15 AM 50.0°F10.0°C 42.7°F5.9°C 76% 4.6 mph SSE7.4 kmh SSE 6.9 mph11.1 kmh 29.41 in995.9 mb - 0.00 in0.0 mm 0.00 in0.0 mm
07:10 AM 49.8°F9.9°C 42.6°F5.9°C 76% 2.3 mph SE3.7 kmh SE 5.8 mph9.3 kmh 29.41 in995.9 mb - 0.00 in0.0 mm 0.00 in0.0 mm
07:00 AM 49.6°F9.8°C 42.4°F5.8°C 76% 4.6 mph SE7.4 kmh SE 5.8 mph9.3 kmh 29.41 in995.9 mb - 0.00 in0.0 mm 0.00 in0.0 mm
06:55 AM 49.6°F9.8°C 42.4°F5.8°C 76% 4.6 mph SE7.4 kmh SE 4.6 mph7.4 kmh 29.41 in995.9 mb - 0.00 in0.0 mm 0.00 in0.0 mm
06:50 AM 49.8°F9.9°C 42.6°F5.9°C 76% 3.5 mph SE5.6 kmh SE 4.6 mph7.4 kmh 29.41 in995.9 mb - 0.00 in0.0 mm 0.00 in0.0 mm
06:45 AM 50.0°F10.0°C 42.7°F5.9°C 76% 3.5 mph SE5.6 kmh SE 5.8 mph9.3 kmh 29.41 in995.9 mb - 0.00 in0.0 mm 0.00 in0.0 mm
06:40 AM 50.0°F10.0°C 42.7°F5.9°C 76% 5.8 mph SSE9.3 kmh SSE 8.1 mph13.0 kmh 29.41 in995.9 mb - 0.00 in0.0 mm 0.00 in0.0 mm
06:35 AM 50.0°F10.0°C 42.7°F5.9°C 76% 4.6 mph SE7.4 kmh SE 9.2 mph14.8 kmh 29.41 in995.9 mb - 0.00 in0.0 mm 0.00 in0.0 mm
06:30 AM 50.0°F10.0°C 42.4°F5.8°C 75% 4.6 mph SSE7.4 kmh SSE 6.9 mph11.1 kmh 29.41 in995.9 mb - 0.00 in0.0 mm 0.00 in0.0 mm
06:25 AM 49.8°F9.9°C 42.6°F5.9°C 76% 4.6 mph SSE7.4 kmh SSE 6.9 mph11.1 kmh 29.41 in995.9 mb - 0.00 in0.0 mm 0.00 in0.0 mm
06:20 AM 49.6°F9.8°C 42.4°F5.8°C 76% 5.8 mph S9.3 kmh S 8.1 mph13.0 kmh 29.41 in995.9 mb - 0.00 in0.0 mm 0.00 in0.0 mm
06:15 AM 49.3°F9.6°C 41.7°F5.4°C 75% 5.8 mph SSE9.3 kmh SSE 8.1 mph13.0 kmh 29.41 in995.9 mb - 0.00 in0.0 mm 0.00 in0.0 mm
06:10 AM 49.1°F9.5°C 41.5°F5.3°C 75% Calm Calm 2.3 mph3.7 kmh 29.41 in995.9 mb - 0.00 in0.0 mm 0.00 in0.0 mm
06:00 AM 49.3°F9.6°C 41.7°F5.4°C 75% 1.2 mph S1.9 kmh S 3.5 mph5.6 kmh 29.44 in997.0 mb - 0.00 in0.0 mm 0.00 in0.0 mm
05:55 AM 49.3°F9.6°C 41.7°F5.4°C 75% 2.3 mph SSE3.7 kmh SSE 4.6 mph7.4 kmh 29.44 in997.0 mb - 0.00 in0.0 mm 0.00 in0.0 mm
05:50 AM 49.3°F9.6°C 41.7°F5.4°C 75% 1.2 mph SSE1.9 kmh SSE 3.5 mph5.6 kmh 29.44 in997.0 mb - 0.00 in0.0 mm 0.00 in0.0 mm
05:45 AM 49.5°F9.7°C 41.9°F5.5°C 75% 1.2 mph S1.9 kmh S -- 29.44 in997.0 mb - 0.00 in0.0 mm 0.00 in0.0 mm
05:40 AM 49.6°F9.8°C 42.0°F5.6°C 75% 2.3 mph SSE3.7 kmh SSE 4.6 mph7.4 kmh 29.44 in997.0 mb - 0.00 in0.0 mm 0.00 in0.0 mm
05:35 AM 49.6°F9.8°C 42.0°F5.6°C 75% Calm Calm 1.2 mph1.9 kmh 29.44 in997.0 mb - 0.00 in0.0 mm 0.00 in0.0 mm
05:30 AM 49.6°F9.8°C 42.0°F5.6°C 75% 2.3 mph SE3.7 kmh SE 4.6 mph7.4 kmh 29.44 in997.0 mb - 0.00 in0.0 mm 0.00 in0.0 mm
05:25 AM 49.5°F9.7°C 41.9°F5.5°C 75% 1.2 mph ENE1.9 kmh ENE 2.3 mph3.7 kmh 29.44 in997.0 mb - 0.00 in0.0 mm 0.00 in0.0 mm
05:20 AM 49.5°F9.7°C 41.9°F5.5°C 75% Calm Calm -- 29.44 in997.0 mb - 0.00 in0.0 mm 0.00 in0.0 mm
05:15 AM 49.5°F9.7°C 41.9°F5.5°C 75% Calm Calm -- 29.44 in997.0 mb - 0.00 in0.0 mm 0.00 in0.0 mm
05:10 AM 49.6°F9.8°C 42.0°F5.6°C 75% 1.2 mph E1.9 kmh E 2.3 mph3.7 kmh 29.44 in997.0 mb - 0.00 in0.0 mm 0.00 in0.0 mm
05:00 AM 50.0°F10.0°C 42.0°F5.6°C 74% 1.2 mph E1.9 kmh E 2.3 mph3.7 kmh 29.44 in997.0 mb - 0.00 in0.0 mm 0.00 in0.0 mm
04:55 AM 50.2°F10.1°C 42.6°F5.9°C 75% 3.5 mph E5.6 kmh E 3.5 mph5.6 kmh 29.44 in997.0 mb - 0.00 in0.0 mm 0.00 in0.0 mm
04:50 AM 50.2°F10.1°C 42.6°F5.9°C 75% 2.3 mph SE3.7 kmh SE 3.5 mph5.6 kmh 29.44 in997.0 mb - 0.00 in0.0 mm 0.00 in0.0 mm
04:45 AM 50.2°F10.1°C 42.6°F5.9°C 75% 2.3 mph SE3.7 kmh SE 5.8 mph9.3 kmh 29.44 in997.0 mb - 0.00 in0.0 mm 0.00 in0.0 mm
04:40 AM 50.2°F10.1°C 42.2°F5.7°C 74% 2.3 mph SE3.7 kmh SE 3.5 mph5.6 kmh 29.44 in997.0 mb - 0.00 in0.0 mm 0.00 in0.0 mm
04:35 AM 50.0°F10.0°C 42.0°F5.6°C 74% 2.3 mph SE3.7 kmh SE 2.3 mph3.7 kmh 29.41 in995.9 mb - 0.00 in0.0 mm 0.00 in0.0 mm
04:30 AM 50.0°F10.0°C 42.0°F5.6°C 74% 1.2 mph SE1.9 kmh SE 2.3 mph3.7 kmh 29.41 in995.9 mb - 0.00 in0.0 mm 0.00 in0.0 mm
04:25 AM 50.0°F10.0°C 42.0°F5.6°C 74% 2.3 mph SSE3.7 kmh SSE 4.6 mph7.4 kmh 29.41 in995.9 mb - 0.00 in0.0 mm 0.00 in0.0 mm
04:20 AM 50.0°F10.0°C 42.0°F5.6°C 74% Calm Calm 1.2 mph1.9 kmh 29.44 in997.0 mb - 0.00 in0.0 mm 0.00 in0.0 mm
04:15 AM 49.8°F9.9°C 42.2°F5.7°C 75% 2.3 mph SSE3.7 kmh SSE 4.6 mph7.4 kmh 29.44 in997.0 mb - 0.00 in0.0 mm 0.00 in0.0 mm
04:10 AM 49.6°F9.8°C 41.7°F5.4°C 74% 2.3 mph SSE3.7 kmh SSE 4.6 mph7.4 kmh 29.44 in997.0 mb - 0.00 in0.0 mm 0.00 in0.0 mm
04:00 AM 49.5°F9.7°C 41.5°F5.3°C 74% 2.3 mph SSE3.7 kmh SSE 2.3 mph3.7 kmh 29.44 in997.0 mb - 0.00 in0.0 mm 0.00 in0.0 mm
03:55 AM 49.5°F9.7°C 41.5°F5.3°C 74% Calm Calm 1.2 mph1.9 kmh 29.44 in997.0 mb - 0.00 in0.0 mm 0.00 in0.0 mm
03:50 AM 49.3°F9.6°C 41.3°F5.2°C 74% 1.2 mph S1.9 kmh S 2.3 mph3.7 kmh 29.44 in997.0 mb - 0.00 in0.0 mm 0.00 in0.0 mm
03:45 AM 49.4°F9.7°C 41.4°F5.2°C 74% Calm Calm 3.5 mph5.6 kmh 29.44 in997.0 mb - 0.00 in0.0 mm 0.00 in0.0 mm
03:40 AM 49.3°F9.6°C 41.3°F5.2°C 74% 1.2 mph S1.9 kmh S 2.3 mph3.7 kmh 29.44 in997.0 mb - 0.00 in0.0 mm 0.00 in0.0 mm
03:35 AM 49.1°F9.5°C 41.2°F5.1°C 74% 1.2 mph S1.9 kmh S 2.3 mph3.7 kmh 29.44 in997.0 mb - 0.00 in0.0 mm 0.00 in0.0 mm
03:30 AM 49.1°F9.5°C 41.2°F5.1°C 74% 1.2 mph S1.9 kmh S 3.5 mph5.6 kmh 29.44 in997.0 mb - 0.00 in0.0 mm 0.00 in0.0 mm
03:25 AM 49.5°F9.7°C 41.5°F5.3°C 74% Calm Calm -- 29.44 in997.0 mb - 0.00 in0.0 mm 0.00 in0.0 mm
03:20 AM 49.6°F9.8°C 41.7°F5.4°C 74% Calm Calm 1.2 mph1.9 kmh 29.44 in997.0 mb - 0.00 in0.0 mm 0.00 in0.0 mm
03:15 AM 49.6°F9.8°C 41.7°F5.4°C 74% 1.2 mph SSW1.9 kmh SSW 2.3 mph3.7 kmh 29.44 in997.0 mb - 0.00 in0.0 mm 0.00 in0.0 mm
03:10 AM 49.6°F9.8°C 41.7°F5.4°C 74% 1.2 mph SSW1.9 kmh SSW 3.5 mph5.6 kmh 29.44 in997.0 mb - 0.00 in0.0 mm 0.00 in0.0 mm
03:00 AM 50.0°F10.0°C 41.7°F5.4°C 73% Calm Calm -- 29.47 in998.0 mb - 0.00 in0.0 mm 0.00 in0.0 mm
02:55 AM 50.4°F10.2°C 42.4°F5.8°C 74% Calm Calm 1.2 mph1.9 kmh 29.47 in998.0 mb - 0.00 in0.0 mm 0.00 in0.0 mm
02:50 AM 50.7°F10.4°C 42.7°F5.9°C 74% Calm Calm 2.3 mph3.7 kmh 29.47 in998.0 mb - 0.00 in0.0 mm 0.00 in0.0 mm
02:45 AM 51.1°F10.6°C 43.1°F6.2°C 74% Calm Calm -- 29.47 in998.0 mb - 0.00 in0.0 mm 0.00 in0.0 mm
02:40 AM 51.1°F10.6°C 43.1°F6.2°C 74% 1.2 mph S1.9 kmh S 2.3 mph3.7 kmh 29.47 in998.0 mb - 0.00 in0.0 mm 0.00 in0.0 mm
02:35 AM 51.3°F10.7°C 43.3°F6.3°C 74% Calm Calm -- 29.47 in998.0 mb - 0.00 in0.0 mm 0.00 in0.0 mm
02:30 AM 51.3°F10.7°C 43.3°F6.3°C 74% Calm Calm -- 29.47 in998.0 mb - 0.00 in0.0 mm 0.00 in0.0 mm
02:25 AM 51.3°F10.7°C 43.3°F6.3°C 74% Calm Calm 1.2 mph1.9 kmh 29.47 in998.0 mb - 0.00 in0.0 mm 0.00 in0.0 mm
02:20 AM 51.3°F10.7°C 43.3°F6.3°C 74% 2.3 mph SW3.7 kmh SW 3.5 mph5.6 kmh 29.47 in998.0 mb - 0.00 in0.0 mm 0.00 in0.0 mm
02:15 AM 51.3°F10.7°C 43.3°F6.3°C 74% Calm Calm -- 29.47 in998.0 mb - 0.00 in0.0 mm 0.00 in0.0 mm
02:10 AM 51.3°F10.7°C 43.3°F6.3°C 74% Calm Calm 2.3 mph3.7 kmh 29.47 in998.0 mb - 0.00 in0.0 mm 0.00 in0.0 mm
02:00 AM 51.1°F10.6°C 43.1°F6.2°C 74% 2.3 mph S3.7 kmh S 3.5 mph5.6 kmh 29.47 in998.0 mb - 0.00 in0.0 mm 0.00 in0.0 mm
01:55 AM 50.9°F10.5°C 42.9°F6.1°C 74% 2.3 mph SSW3.7 kmh SSW 3.5 mph5.6 kmh 29.47 in998.0 mb - 0.00 in0.0 mm 0.00 in0.0 mm
01:50 AM 51.0°F10.6°C 43.0°F6.1°C 74% 2.3 mph S3.7 kmh S 3.5 mph5.6 kmh 29.50 in999.0 mb - 0.00 in0.0 mm 0.00 in0.0 mm
01:45 AM 51.1°F10.6°C 43.1°F6.2°C 74% 2.3 mph S3.7 kmh S 3.5 mph5.6 kmh 29.50 in999.0 mb - 0.00 in0.0 mm 0.00 in0.0 mm
01:40 AM 51.3°F10.7°C 43.3°F6.3°C 74% 2.3 mph S3.7 kmh S 4.6 mph7.4 kmh 29.50 in999.0 mb - 0.00 in0.0 mm 0.00 in0.0 mm
01:35 AM 51.2°F10.7°C 43.2°F6.2°C 74% 2.3 mph SSW3.7 kmh SSW 4.6 mph7.4 kmh 29.50 in999.0 mb - 0.00 in0.0 mm 0.00 in0.0 mm
01:30 AM 51.3°F10.7°C 43.3°F6.3°C 74% 1.2 mph SSE1.9 kmh SSE 3.5 mph5.6 kmh 29.50 in999.0 mb - 0.00 in0.0 mm 0.00 in0.0 mm
01:25 AM 51.3°F10.7°C 43.3°F6.3°C 74% 1.2 mph S1.9 kmh S 2.3 mph3.7 kmh 29.50 in999.0 mb - 0.00 in0.0 mm 0.00 in0.0 mm
01:20 AM 51.2°F10.7°C 43.2°F6.2°C 74% Calm Calm 2.3 mph3.7 kmh 29.50 in999.0 mb - 0.00 in0.0 mm 0.00 in0.0 mm
01:15 AM 51.3°F10.7°C 43.3°F6.3°C 74% Calm Calm -- 29.50 in999.0 mb - 0.00 in0.0 mm 0.00 in0.0 mm
01:10 AM 51.3°F10.7°C 43.6°F6.4°C 75% Calm Calm -- 29.50 in999.0 mb - 0.00 in0.0 mm 0.00 in0.0 mm
01:00 AM 51.3°F10.7°C 43.6°F6.4°C 75% Calm Calm 2.3 mph3.7 kmh 29.50 in999.0 mb - 0.00 in0.0 mm 0.00 in0.0 mm
12:55 AM 51.3°F10.7°C 43.6°F6.4°C 75% 1.2 mph S1.9 kmh S 3.5 mph5.6 kmh 29.50 in999.0 mb - 0.00 in0.0 mm 0.00 in0.0 mm
12:50 AM 51.3°F10.7°C 43.6°F6.4°C 75% 2.3 mph SW3.7 kmh SW 4.6 mph7.4 kmh 29.50 in999.0 mb - 0.00 in0.0 mm 0.00 in0.0 mm
12:45 AM 51.3°F10.7°C 43.6°F6.4°C 75% Calm Calm 2.3 mph3.7 kmh 29.50 in999.0 mb - 0.00 in0.0 mm 0.00 in0.0 mm
12:40 AM 51.2°F10.7°C 43.5°F6.4°C 75% 1.2 mph SSW1.9 kmh SSW 2.3 mph3.7 kmh 29.50 in999.0 mb - 0.00 in0.0 mm 0.00 in0.0 mm
12:35 AM 51.1°F10.6°C 43.4°F6.3°C 75% Calm Calm -- 29.50 in999.0 mb - 0.00 in0.0 mm 0.00 in0.0 mm
12:30 AM 51.1°F10.6°C 43.4°F6.3°C 75% Calm Calm 1.2 mph1.9 kmh 29.50 in999.0 mb - 0.00 in0.0 mm 0.00 in0.0 mm
12:25 AM 51.1°F10.6°C 43.4°F6.3°C 75% Calm Calm 2.3 mph3.7 kmh 29.50 in999.0 mb - 0.00 in0.0 mm 0.00 in0.0 mm
12:20 AM 50.9°F10.5°C 43.3°F6.3°C 75% Calm Calm -- 29.47 in998.0 mb - 0.00 in0.0 mm 0.00 in0.0 mm
12:15 AM 50.7°F10.4°C 43.1°F6.2°C 75% 2.3 mph S3.7 kmh S 3.5 mph5.6 kmh 29.47 in998.0 mb - 0.00 in0.0 mm 0.00 in0.0 mm
12:10 AM 50.5°F10.3°C 42.9°F6.1°C 75% 1.2 mph SSW1.9 kmh SSW 3.5 mph5.6 kmh 29.47 in998.0 mb - 0.00 in0.0 mm 0.00 in0.0 mm
12:00 AM 50.2°F10.1°C 42.6°F5.9°C 75% 1.2 mph S1.9 kmh S 3.5 mph5.6 kmh 29.50 in999.0 mb - 0.00 in0.0 mm 0.00 in0.0 mm